Time;durP1;ratioP1;P1;durP2;ratioP2;P2;SDS_P1;SDS_P2;PMS_P1;PMS_P2;Temp;Humidity;BMP_temperature;BMP_pressure;BME280_temperature;BME280_humidity;BME280_pressure;Samples;Min_cycle;Max_cycle;Signal;HPM_P1;HPM_P2
2022/02/12 00:00:03;;;;;;;5.75;2.90;;;;;;;;;;5018861;28;20022;-84
2022/02/12 00:02:29;;;;;;;8.35;3.60;;;;;;;;;;5018264;28;20046;-84
2022/02/12 00:04:56;;;;;;;5.25;3.20;;;;;;;;;;5018507;28;20033;-84
2022/02/12 00:07:22;;;;;;;8.82;3.40;;;;;;;;;;5000901;28;20038;-85
2022/02/12 00:09:48;;;;;;;5.78;3.03;;;;;;;;;;5018584;28;20030;-84
2022/02/12 00:12:14;;;;;;;4.25;2.92;;;;;;;;;;5018495;28;20025;-83
2022/02/12 00:14:40;;;;;;;7.13;2.70;;;;;;;;;;5027879;28;20468;-85
2022/02/12 00:17:06;;;;;;;4.78;2.67;;;;;;;;;;5050183;28;20075;-84
2022/02/12 00:19:50;;;;;;;5.32;3.10;;;;;;;;;;5057126;28;20052;-85
2022/02/12 00:22:17;;;;;;;5.72;2.70;;;;;;;;;;5057884;28;20419;-85
2022/02/12 00:24:43;;;;;;;5.05;2.78;;;;;;;;;;5057911;28;20350;-85
2022/02/12 00:27:09;;;;;;;5.32;2.78;;;;;;;;;;5053874;28;20029;-85
2022/02/12 00:29:35;;;;;;;4.38;2.83;;;;;;;;;;5040087;28;20033;-85
2022/02/12 00:32:02;;;;;;;4.97;2.60;;;;;;;;;;5055832;28;20052;-82
2022/02/12 00:34:28;;;;;;;3.55;2.47;;;;;;;;;;5019900;28;20037;-83
2022/02/12 00:36:54;;;;;;;4.93;3.13;;;;;;;;;;5034095;28;20013;-86
2022/02/12 00:39:20;;;;;;;5.22;2.75;;;;;;;;;;5041077;28;20036;-85
2022/02/12 00:41:46;;;;;;;3.30;2.53;;;;;;;;;;5040268;28;20419;-85
2022/02/12 00:44:12;;;;;;;4.43;2.50;;;;;;;;;;5037348;28;20042;-86
2022/02/12 00:46:38;;;;;;;4.63;2.25;;;;;;;;;;5038026;28;20044;-86
2022/02/12 00:52:07;;;;;;;5.85;2.45;;;;;;;;;;5037385;28;20430;-86
2022/02/12 00:54:34;;;;;;;5.80;2.33;;;;;;;;;;5037606;28;20506;-86
2022/02/12 00:57:00;;;;;;;5.13;2.92;;;;;;;;;;5046308;28;20029;-88
2022/02/12 00:59:26;;;;;;;4.35;2.88;;;;;;;;;;5057333;28;20052;-87
2022/02/12 01:01:53;;;;;;;5.68;2.05;;;;;;;;;;5042037;28;20060;-87
2022/02/12 01:04:19;;;;;;;5.03;1.98;;;;;;;;;;5039502;28;20039;-87
2022/02/12 01:06:45;;;;;;;6.28;2.47;;;;;;;;;;5046726;28;20021;-87
2022/02/12 01:09:11;;;;;;;2.55;2.10;;;;;;;;;;5038454;28;20419;-86
2022/02/12 01:11:37;;;;;;;4.97;2.35;;;;;;;;;;5052729;28;20380;-85
2022/02/12 01:14:03;;;;;;;5.55;2.42;;;;;;;;;;5053891;28;20072;-84
2022/02/12 01:16:29;;;;;;;5.75;2.63;;;;;;;;;;5041290;28;20029;-84
2022/02/12 01:18:55;;;;;;;2.95;2.08;;;;;;;;;;5023909;28;20017;-84
2022/02/12 01:21:21;;;;;;;3.05;2.45;;;;;;;;;;5055979;28;20026;-84
2022/02/12 01:23:48;;;;;;;4.60;2.58;;;;;;;;;;5023680;28;20025;-86
2022/02/12 01:26:15;;;;;;;3.33;2.30;;;;;;;;;;5051419;28;20025;-85
2022/02/12 01:28:41;;;;;;;4.32;2.50;;;;;;;;;;5043624;28;20031;-84
2022/02/12 01:31:07;;;;;;;6.68;2.63;;;;;;;;;;5060946;28;20032;-85
2022/02/12 01:33:33;;;;;;;6.18;2.80;;;;;;;;;;5049388;28;20026;-84
2022/02/12 01:39:04;;;;;;;6.13;2.58;;;;;;;;;;5059749;28;20076;-84
2022/02/12 01:41:30;;;;;;;5.35;2.35;;;;;;;;;;5049685;28;20107;-85
2022/02/12 01:43:57;;;;;;;8.75;3.00;;;;;;;;;;5052189;28;20029;-85
2022/02/12 01:46:23;;;;;;;4.43;3.00;;;;;;;;;;5053656;28;20025;-85
2022/02/12 01:48:50;;;;;;;4.93;2.83;;;;;;;;;;5043231;28;20309;-84
2022/02/12 01:51:17;;;;;;;5.95;2.17;;;;;;;;;;5041403;28;20022;-85
2022/02/12 01:53:43;;;;;;;4.80;2.40;;;;;;;;;;5056180;28;20078;-84
2022/02/12 01:56:09;;;;;;;4.50;2.25;;;;;;;;;;5040781;28;20045;-84
2022/02/12 01:58:35;;;;;;;4.25;2.47;;;;;;;;;;5023192;28;20070;-84
2022/02/12 02:01:02;;;;;;;3.90;2.38;;;;;;;;;;5051005;28;20033;-84
2022/02/12 02:03:28;;;;;;;4.47;2.88;;;;;;;;;;5060672;28;20020;-85
2022/02/12 02:05:55;;;;;;;5.05;2.40;;;;;;;;;;5042793;28;20060;-84
2022/02/12 02:08:21;;;;;;;5.20;2.38;;;;;;;;;;5040783;28;20026;-84
2022/02/12 02:10:48;;;;;;;5.40;2.25;;;;;;;;;;5023032;28;20022;-85
2022/02/12 02:13:24;;;;;;;4.20;2.00;;;;;;;;;;5035297;28;20068;-86
2022/02/12 02:15:50;;;;;;;6.68;2.10;;;;;;;;;;5060419;28;20065;-84
2022/02/12 02:18:16;;;;;;;5.53;1.70;;;;;;;;;;5035744;28;20029;-84
2022/02/12 02:21:20;;;;;;;4.35;1.80;;;;;;;;;;5005936;28;20041;-85
2022/02/12 02:23:46;;;;;;;3.22;1.77;;;;;;;;;;5002952;28;20034;-85
2022/02/12 02:26:13;;;;;;;2.33;1.50;;;;;;;;;;5019885;28;20377;-84
2022/02/12 02:28:39;;;;;;;6.47;1.95;;;;;;;;;;5020454;28;20041;-84
2022/02/12 02:31:05;;;;;;;4.25;2.05;;;;;;;;;;5020397;28;20026;-84
2022/02/12 02:33:31;;;;;;;6.13;2.97;;;;;;;;;;5020605;28;20018;-84
2022/02/12 02:39:01;;;;;;;3.80;1.75;;;;;;;;;;5020573;28;20033;-83
2022/02/12 02:41:27;;;;;;;3.30;1.38;;;;;;;;;;5035148;28;20057;-84
2022/02/12 02:43:53;;;;;;;4.53;2.00;;;;;;;;;;5031906;28;20412;-84
2022/02/12 02:46:19;;;;;;;2.50;1.50;;;;;;;;;;5039905;28;20403;-83
2022/02/12 02:48:45;;;;;;;5.32;1.92;;;;;;;;;;5039646;28;20025;-84
2022/02/12 02:56:59;;;;;;;5.13;1.40;;;;;;;;;;5039707;28;20087;-83
2022/02/12 02:59:25;;;;;;;2.05;1.35;;;;;;;;;;5025856;28;20116;-83
2022/02/12 03:01:52;;;;;;;3.22;1.77;;;;;;;;;;5002147;28;20022;-83
2022/02/12 03:04:19;;;;;;;5.43;1.42;;;;;;;;;;5019571;28;20025;-83
2022/02/12 03:06:46;;;;;;;3.28;1.70;;;;;;;;;;5019707;28;20022;-85
2022/02/12 03:09:12;;;;;;;3.10;1.65;;;;;;;;;;5019769;28;20040;-85
2022/02/12 03:11:38;;;;;;;2.83;1.58;;;;;;;;;;5019296;28;20032;-84
2022/02/12 03:14:04;;;;;;;2.65;1.70;;;;;;;;;;5019180;28;20050;-84
2022/02/12 03:16:31;;;;;;;4.35;1.80;;;;;;;;;;5019453;28;20046;-84
2022/02/12 03:18:57;;;;;;;3.30;1.60;;;;;;;;;;5001814;28;20037;-85
2022/02/12 03:21:23;;;;;;;3.35;1.50;;;;;;;;;;5020145;28;20034;-84
2022/02/12 03:23:49;;;;;;;3.63;2.33;;;;;;;;;;5001738;28;20045;-84
2022/02/12 03:26:15;;;;;;;4.05;1.58;;;;;;;;;;5019213;28;20026;-86
2022/02/12 03:28:43;;;;;;;3.55;1.55;;;;;;;;;;5019233;28;20026;-86
2022/02/12 03:31:09;;;;;;;2.97;1.65;;;;;;;;;;5019362;28;20052;-85
2022/02/12 03:33:35;;;;;;;5.38;1.90;;;;;;;;;;5001651;28;20038;-86
2022/02/12 03:36:38;;;;;;;2.17;1.40;;;;;;;;;;5019250;28;20145;-86
2022/02/12 03:39:04;;;;;;;3.70;1.70;;;;;;;;;;5017809;28;20063;-86
2022/02/12 03:41:30;;;;;;;3.55;1.73;;;;;;;;;;5018849;28;20071;-86
2022/02/12 03:43:56;;;;;;;5.28;1.95;;;;;;;;;;5018678;28;20040;-86
2022/02/12 03:46:22;;;;;;;4.75;1.83;;;;;;;;;;5019033;28;20033;-85
2022/02/12 03:48:49;;;;;;;3.15;1.60;;;;;;;;;;5018599;28;20037;-84
2022/02/12 03:51:17;;;;;;;6.32;1.60;;;;;;;;;;5018538;28;20038;-85
2022/02/12 03:53:44;;;;;;;5.35;2.00;;;;;;;;;;5018482;28;20026;-84
2022/02/12 03:56:10;;;;;;;4.15;1.73;;;;;;;;;;5018842;28;20049;-84
2022/02/12 03:58:36;;;;;;;6.43;1.70;;;;;;;;;;5029600;28;20503;-83
2022/02/12 04:01:02;;;;;;;5.22;2.20;;;;;;;;;;5019361;28;20026;-85
2022/02/12 04:03:28;;;;;;;5.68;1.70;;;;;;;;;;5018261;28;20029;-86
2022/02/12 04:05:54;;;;;;;3.13;1.45;;;;;;;;;;5018460;28;20022;-85
2022/02/12 04:08:21;;;;;;;4.68;1.75;;;;;;;;;;5001040;28;20066;-85
2022/02/12 04:10:48;;;;;;;3.63;1.85;;;;;;;;;;5018552;28;20022;-86
2022/02/12 04:13:14;;;;;;;5.22;1.80;;;;;;;;;;5018376;28;20088;-85
2022/02/12 04:15:40;;;;;;;4.55;1.83;;;;;;;;;;5032076;28;20064;-84
2022/02/12 04:18:09;;;;;;;5.80;2.35;;;;;;;;;;5038028;28;20021;-86
2022/02/12 04:20:35;;;;;;;4.75;2.30;;;;;;;;;;5020668;28;20033;-85
2022/02/12 04:23:01;;;;;;;3.83;1.95;;;;;;;;;;5037741;28;20022;-85
2022/02/12 04:25:27;;;;;;;4.03;1.90;;;;;;;;;;5038185;28;20017;-86
2022/02/12 04:27:53;;;;;;;4.07;1.67;;;;;;;;;;5020525;28;20323;-86
2022/02/12 04:30:19;;;;;;;4.68;1.90;;;;;;;;;;5038097;28;20026;-85
2022/02/12 04:32:45;;;;;;;6.20;2.13;;;;;;;;;;5025408;28;20052;-84
2022/02/12 04:35:18;;;;;;;4.60;1.90;;;;;;;;;;5018282;28;20120;-84
2022/02/12 04:37:44;;;;;;;;;;;;;;;;;;5001327;28;20352;-85
2022/02/12 04:40:11;;;;;;;4.38;1.73;;;;;;;;;;5000551;28;19905;-85
2022/02/12 04:42:37;;;;;;;4.10;1.80;;;;;;;;;;5018208;28;20018;-85
2022/02/12 04:45:04;;;;;;;4.72;2.17;;;;;;;;;;5017583;28;20037;-85
2022/02/12 04:47:30;;;;;;;4.32;1.92;;;;;;;;;;5017681;28;20022;-85
2022/02/12 04:49:57;;;;;;;4.68;2.10;;;;;;;;;;5000151;28;20112;-84
2022/02/12 04:52:23;;;;;;;4.35;2.00;;;;;;;;;;5033348;28;20056;-84
2022/02/12 04:54:49;;;;;;;5.90;2.20;;;;;;;;;;5037454;28;20036;-83
2022/02/12 04:57:15;;;;;;;4.03;1.92;;;;;;;;;;5037475;28;20458;-85
2022/02/12 04:59:41;;;;;;;4.50;2.20;;;;;;;;;;5037650;28;20293;-85
2022/02/12 05:02:07;;;;;;;4.57;2.25;;;;;;;;;;5037829;28;20144;-84
2022/02/12 05:04:33;;;;;;;9.65;2.35;;;;;;;;;;5037615;28;20080;-84
2022/02/12 05:06:59;;;;;;;4.05;2.17;;;;;;;;;;5037654;28;20033;-85
2022/02/12 05:09:26;;;;;;;4.05;2.17;;;;;;;;;;5037426;28;20331;-84
2022/02/12 05:11:52;;;;;;;6.80;2.55;;;;;;;;;;5036763;28;20463;-84
2022/02/12 05:14:19;;;;;;;3.60;2.40;;;;;;;;;;5037327;28;20057;-84
2022/02/12 05:16:45;;;;;;;6.07;2.28;;;;;;;;;;5037608;28;20021;-84
2022/02/12 05:19:11;;;;;;;7.07;2.60;;;;;;;;;;5037240;28;20100;-85
2022/02/12 05:21:38;;;;;;;5.18;2.50;;;;;;;;;;5037363;28;20021;-84
2022/02/12 05:24:04;;;;;;;5.75;2.83;;;;;;;;;;5024520;28;20030;-84
2022/02/12 05:26:30;;;;;;;3.63;2.40;;;;;;;;;;5000232;28;20409;-85
2022/02/12 05:28:56;;;;;;;6.78;2.80;;;;;;;;;;5017792;28;20026;-85
2022/02/12 05:31:23;;;;;;;7.72;3.20;;;;;;;;;;5017690;28;20133;-85
2022/02/12 05:33:49;;;;;;;6.43;2.75;;;;;;;;;;5017632;28;20034;-84
2022/02/12 05:36:15;;;;;;;7.60;3.17;;;;;;;;;;5017330;28;20080;-85
2022/02/12 05:38:42;;;;;;;8.35;4.07;;;;;;;;;;5017508;28;20026;-85
2022/02/12 05:41:08;;;;;;;12.52;3.55;;;;;;;;;;5000144;28;20030;-85
2022/02/12 05:43:34;;;;;;;9.05;3.63;;;;;;;;;;5016973;28;20038;-86
2022/02/12 05:46:01;;;;;;;5.53;3.10;;;;;;;;;;5012719;28;20076;-87
2022/02/12 05:48:27;;;;;;;5.82;3.38;;;;;;;;;;5037324;28;20036;-87
2022/02/12 05:50:56;;;;;;;7.50;4.00;;;;;;;;;;5037252;28;20289;-87
2022/02/12 05:53:22;;;;;;;13.02;5.78;;;;;;;;;;5037341;28;20347;-87
2022/02/12 05:55:48;;;;;;;8.40;4.72;;;;;;;;;;5036903;28;20029;-86
2022/02/12 05:58:14;;;;;;;10.68;5.35;;;;;;;;;;5037274;28;20022;-87
2022/02/12 06:00:40;;;;;;;15.40;6.30;;;;;;;;;;5037326;28;20037;-87
2022/02/12 06:03:06;;;;;;;14.90;7.28;;;;;;;;;;5022801;28;20040;-87
2022/02/12 06:05:33;;;;;;;22.05;10.38;;;;;;;;;;5025538;28;20034;-87
2022/02/12 06:08:00;;;;;;;20.40;8.82;;;;;;;;;;5003459;28;20069;-86
2022/02/12 06:10:27;;;;;;;18.50;8.27;;;;;;;;;;5020414;28;20026;-87
2022/02/12 06:12:53;;;;;;;18.15;9.35;;;;;;;;;;5020994;28;20030;-87
2022/02/12 06:15:19;;;;;;;17.42;8.38;;;;;;;;;;5020506;28;20046;-87
2022/02/12 06:17:45;;;;;;;12.07;6.60;;;;;;;;;;5020479;28;20086;-88
2022/02/12 06:20:12;;;;;;;11.93;5.53;;;;;;;;;;5003102;28;20220;-87
2022/02/12 06:22:38;;;;;;;8.93;5.25;;;;;;;;;;5002799;28;20129;-87
2022/02/12 06:25:04;;;;;;;7.25;4.13;;;;;;;;;;5019920;28;20072;-86
2022/02/12 06:27:30;;;;;;;8.43;4.68;;;;;;;;;;5040153;28;20411;-88
2022/02/12 06:29:57;;;;;;;7.63;3.67;;;;;;;;;;5039977;28;20408;-87
2022/02/12 06:32:23;;;;;;;9.43;3.38;;;;;;;;;;5040341;28;20136;-87
2022/02/12 06:34:51;;;;;;;6.35;3.20;;;;;;;;;;5040160;28;20026;-87
2022/02/12 06:37:19;;;;;;;6.65;3.70;;;;;;;;;;5039931;28;20029;-87
2022/02/12 06:39:45;;;;;;;7.05;3.65;;;;;;;;;;5039666;28;20384;-87
2022/02/12 06:42:11;;;;;;;8.38;3.58;;;;;;;;;;5040078;28;20017;-86
2022/02/12 06:44:37;;;;;;;6.55;3.08;;;;;;;;;;5039276;28;20091;-86
2022/02/12 06:47:04;;;;;;;10.10;3.50;;;;;;;;;;5039862;28;20105;-86
2022/02/12 06:49:30;;;;;;;5.05;2.95;;;;;;;;;;5039861;28;20022;-86
2022/02/12 06:55:00;;;;;;;9.05;4.53;;;;;;;;;;5030024;28;20072;-86
2022/02/12 06:57:26;;;;;;;20.42;8.93;;;;;;;;;;5002517;28;20026;-85
2022/02/12 06:59:52;;;;;;;30.10;13.27;;;;;;;;;;5012862;28;20422;-86
2022/02/12 07:02:19;;;;;;;34.40;14.00;;;;;;;;;;5039088;28;20036;-86
2022/02/12 07:04:45;;;;;;;26.00;10.18;;;;;;;;;;5022091;28;20034;-86
2022/02/12 07:10:15;;;;;;;9.15;3.78;;;;;;;;;;5039572;28;20036;-85
2022/02/12 07:12:42;;;;;;;11.15;4.10;;;;;;;;;;5021222;28;20041;-86
2022/02/12 07:15:08;;;;;;;7.32;3.45;;;;;;;;;;5037639;28;20432;-85
2022/02/12 07:17:39;;;;;;;8.02;3.47;;;;;;;;;;5039113;28;20022;-86
2022/02/12 07:20:08;;;;;;;6.38;4.47;;;;;;;;;;5039085;28;20097;-86
2022/02/12 07:22:35;;;;;;;9.45;4.05;;;;;;;;;;5039409;28;20026;-85
2022/02/12 07:25:01;;;;;;;8.73;3.92;;;;;;;;;;5035555;28;20034;-86
2022/02/12 07:27:27;;;;;;;9.82;4.53;;;;;;;;;;5039161;28;20379;-86
2022/02/12 07:29:53;;;;;;;7.47;4.05;;;;;;;;;;5039030;28;20113;-86
2022/02/12 07:32:19;;;;;;;10.00;4.30;;;;;;;;;;5038920;28;20060;-86
2022/02/12 07:34:45;;;;;;;7.72;3.75;;;;;;;;;;5037103;28;20029;-85
2022/02/12 07:37:11;;;;;;;8.90;4.30;;;;;;;;;;5021347;28;20029;-86
2022/02/12 07:39:38;;;;;;;9.80;4.50;;;;;;;;;;5021010;28;20029;-86
2022/02/12 07:42:04;;;;;;;6.97;3.90;;;;;;;;;;5039202;28;20032;-86
2022/02/12 07:44:30;;;;;;;8.23;4.22;;;;;;;;;;5036306;28;20071;-85
2022/02/12 07:46:56;;;;;;;9.23;4.72;;;;;;;;;;5001704;28;20026;-86
2022/02/12 07:49:22;;;;;;;11.40;4.22;;;;;;;;;;5018769;28;20346;-85
2022/02/12 07:51:48;;;;;;;7.97;4.55;;;;;;;;;;5001238;28;20022;-85
2022/02/12 07:54:14;;;;;;;8.75;4.85;;;;;;;;;;5018723;28;20018;-85
2022/02/12 07:56:40;;;;;;;11.82;4.80;;;;;;;;;;5019054;28;20056;-85
2022/02/12 07:59:06;;;;;;;8.25;4.60;;;;;;;;;;5001382;28;20360;-86
2022/02/12 08:01:32;;;;;;;9.45;4.80;;;;;;;;;;5018504;28;20404;-86
2022/02/12 08:04:01;;;;;;;10.68;5.00;;;;;;;;;;5019794;28;20053;-85
2022/02/12 08:09:12;;;;;;;9.35;5.32;;;;;;;;;;5018332;28;20049;-84
2022/02/12 08:11:40;;;;;;;14.43;7.00;;;;;;;;;;5018213;28;20033;-85
2022/02/12 08:14:06;;;;;;;14.48;8.23;;;;;;;;;;5018279;28;20069;-85
2022/02/12 08:16:32;;;;;;;23.98;12.77;;;;;;;;;;5018129;28;20049;-85
2022/02/12 08:18:58;;;;;;;15.32;8.02;;;;;;;;;;5001030;28;20088;-85
2022/02/12 08:21:24;;;;;;;25.35;12.70;;;;;;;;;;5018451;28;20022;-85
2022/02/12 08:23:50;;;;;;;24.83;12.85;;;;;;;;;;5018708;28;20030;-85
2022/02/12 08:26:17;;;;;;;16.60;8.52;;;;;;;;;;5023738;28;20060;-86
2022/02/12 08:28:43;;;;;;;18.00;9.18;;;;;;;;;;5035889;28;20033;-84
2022/02/12 08:31:09;;;;;;;15.40;8.38;;;;;;;;;;5037223;28;20071;-84
2022/02/12 08:33:35;;;;;;;12.60;6.60;;;;;;;;;;5017865;28;20038;-84
2022/02/12 08:36:19;;;;;;;13.60;6.70;;;;;;;;;;5031855;28;20074;-84
2022/02/12 08:38:46;;;;;;;16.77;7.45;;;;;;;;;;5037502;28;20017;-84
2022/02/12 08:41:12;;;;;;;18.40;7.88;;;;;;;;;;5037545;28;20101;-85
2022/02/12 08:43:38;;;;;;;19.60;9.70;;;;;;;;;;5037453;28;20033;-85
2022/02/12 08:46:04;;;;;;;24.83;9.27;;;;;;;;;;5019872;28;20033;-84
2022/02/12 08:48:31;;;;;;;15.13;7.50;;;;;;;;;;5037175;28;20024;-85
2022/02/12 08:50:57;;;;;;;20.00;8.57;;;;;;;;;;5019585;28;20152;-85
2022/02/12 08:53:23;;;;;;;15.43;7.47;;;;;;;;;;5037511;28;20048;-84
2022/02/12 08:55:49;;;;;;;18.42;7.18;;;;;;;;;;5018389;28;20054;-85
2022/02/12 08:58:15;;;;;;;10.73;5.75;;;;;;;;;;5037239;28;20026;-85
2022/02/12 09:00:41;;;;;;;14.23;6.65;;;;;;;;;;5036997;28;20046;-88
2022/02/12 09:03:08;;;;;;;14.63;7.28;;;;;;;;;;5036561;28;20104;-84
2022/02/12 09:05:40;;;;;;;24.17;9.20;;;;;;;;;;5005210;28;20034;-85
2022/02/12 09:08:06;;;;;;;24.73;9.77;;;;;;;;;;5017764;28;20069;-84
2022/02/12 09:10:32;;;;;;;11.65;5.03;;;;;;;;;;5017829;28;20033;-85
2022/02/12 09:12:59;;;;;;;10.55;6.88;;;;;;;;;;5000073;28;20042;-85
2022/02/12 09:15:25;;;;;;;11.65;6.65;;;;;;;;;;5018426;28;20050;-85
2022/02/12 09:17:51;;;;;;;11.85;5.93;;;;;;;;;;5000062;28;20038;-84
2022/02/12 09:20:17;;;;;;;9.57;5.72;;;;;;;;;;5018051;28;20022;-85
2022/02/12 09:23:20;;;;;;;17.02;7.00;;;;;;;;;;5017793;28;20098;-84
2022/02/12 09:25:47;;;;;;;22.55;10.18;;;;;;;;;;5000086;28;20049;-85
2022/02/12 09:28:13;;;;;;;23.70;8.52;;;;;;;;;;5000070;28;20045;-85
2022/02/12 09:30:39;;;;;;;10.55;6.50;;;;;;;;;;5000301;28;20064;-85
2022/02/12 09:33:05;;;;;;;11.35;5.18;;;;;;;;;;5017322;28;20029;-85
2022/02/12 09:35:31;;;;;;;13.50;6.65;;;;;;;;;;5024528;28;20018;-85
2022/02/12 09:37:57;;;;;;;14.50;6.30;;;;;;;;;;5023238;28;20075;-85
2022/02/12 09:40:25;;;;;;;9.77;5.63;;;;;;;;;;5041119;28;20144;-84
2022/02/12 09:42:52;;;;;;;10.73;5.78;;;;;;;;;;5024159;28;20033;-84
2022/02/12 09:45:18;;;;;;;10.75;5.85;;;;;;;;;;5020998;28;20105;-85
2022/02/12 09:47:48;;;;;;;11.95;6.13;;;;;;;;;;5021241;28;20029;-85
2022/02/12 09:50:16;;;;;;;128.43;51.65;;;;;;;;;;5020659;28;20101;-84
2022/02/12 09:52:45;;;;;;;41.30;20.08;;;;;;;;;;5039582;28;20065;-85
2022/02/12 09:55:12;;;;;;;11.70;6.28;;;;;;;;;;5023143;28;20108;-84
2022/02/12 09:57:38;;;;;;;12.65;6.68;;;;;;;;;;5040807;28;20060;-84
2022/02/12 10:00:08;;;;;;;9.65;5.25;;;;;;;;;;5018043;28;20060;-84
2022/02/12 10:02:34;;;;;;;9.13;5.00;;;;;;;;;;5020517;28;20065;-83
2022/02/12 10:05:15;;;;;;;11.68;6.07;;;;;;;;;;5020287;28;20052;-85
2022/02/12 10:07:41;;;;;;;11.20;6.70;;;;;;;;;;5024310;28;20112;-84
2022/02/12 10:10:18;;;;;;;14.20;6.47;;;;;;;;;;5027992;28;20025;-83
2022/02/12 10:12:44;;;;;;;16.00;5.97;;;;;;;;;;5020817;28;20039;-83
2022/02/12 10:15:24;;;;;;;8.32;5.50;;;;;;;;;;5037669;28;20041;-83
2022/02/12 10:17:54;;;;;;;10.02;5.57;;;;;;;;;;5037923;28;20018;-85
2022/02/12 10:20:25;;;;;;;8.02;4.47;;;;;;;;;;5039061;28;20487;-82
2022/02/12 10:22:52;;;;;;;8.27;5.05;;;;;;;;;;5032848;28;20029;-82
2022/02/12 10:25:21;;;;;;;10.85;5.43;;;;;;;;;;5019931;28;20372;-82
2022/02/12 10:27:49;;;;;;;10.00;5.75;;;;;;;;;;5019804;28;20105;-82
2022/02/12 10:30:15;;;;;;;7.40;4.82;;;;;;;;;;5019686;28;20034;-82
2022/02/12 10:32:42;;;;;;;7.50;5.00;;;;;;;;;;5019619;28;20022;-82
2022/02/12 10:35:09;;;;;;;8.75;5.63;;;;;;;;;;5019647;28;20133;-82
2022/02/12 10:37:40;;;;;;;18.35;9.10;;;;;;;;;;5001899;28;20033;-82
2022/02/12 10:40:07;;;;;;;11.20;6.18;;;;;;;;;;5019645;28;20458;-82
2022/02/12 10:42:34;;;;;;;11.32;5.45;;;;;;;;;;5019532;28;20344;-82
2022/02/12 10:45:00;;;;;;;10.95;6.22;;;;;;;;;;5019892;28;20119;-82
2022/02/12 10:47:27;;;;;;;13.30;6.25;;;;;;;;;;5018853;28;20153;-82
2022/02/12 10:49:53;;;;;;;8.00;5.40;;;;;;;;;;5019269;28;20034;-83
2022/02/12 10:52:20;;;;;;;11.35;5.55;;;;;;;;;;5019110;28;20032;-81
2022/02/12 10:54:50;;;;;;;7.10;5.32;;;;;;;;;;5019113;28;20029;-82
2022/02/12 10:57:16;;;;;;;11.30;6.45;;;;;;;;;;5001960;28;20109;-82
2022/02/12 10:59:43;;;;;;;9.80;5.57;;;;;;;;;;5019192;28;20028;-82
2022/02/12 11:02:18;;;;;;;13.45;6.45;;;;;;;;;;5019324;28;20099;-81
2022/02/12 11:04:46;;;;;;;8.68;6.15;;;;;;;;;;5019056;28;20045;-82
2022/02/12 11:07:13;;;;;;;21.23;12.00;;;;;;;;;;5001313;28;20069;-81
2022/02/12 11:09:40;;;;;;;101.55;47.83;;;;;;;;;;5018906;28;20412;-82
2022/02/12 11:12:06;;;;;;;93.03;41.88;;;;;;;;;;5018695;28;20025;-81
2022/02/12 11:14:34;;;;;;;50.08;23.35;;;;;;;;;;5001275;28;20054;-82
2022/02/12 11:17:02;;;;;;;28.45;12.60;;;;;;;;;;5019110;28;20037;-82
2022/02/12 11:19:28;;;;;;;267.33;122.63;;;;;;;;;;5018996;28;20025;-81
2022/02/12 11:21:55;;;;;;;151.52;69.95;;;;;;;;;;5018393;28;20060;-82
2022/02/12 11:24:34;;;;;;;237.40;106.07;;;;;;;;;;5018876;28;20097;-82
2022/02/12 11:27:00;;;;;;;378.77;165.23;;;;;;;;;;5018659;28;20041;-81
2022/02/12 11:29:40;;;;;;;56.65;25.95;;;;;;;;;;5000892;28;20030;-81
2022/02/12 11:32:11;;;;;;;454.20;227.98;;;;;;;;;;5018632;28;20041;-82
2022/02/12 11:34:41;;;;;;;438.75;210.82;;;;;;;;;;5018598;28;20022;-81
2022/02/12 11:37:14;;;;;;;107.15;49.92;;;;;;;;;;5018144;28;20017;-81
2022/02/12 11:39:40;;;;;;;225.18;89.95;;;;;;;;;;5018454;28;20417;-82
2022/02/12 11:42:12;;;;;;;584.17;268.33;;;;;;;;;;5018624;28;20037;-82
2022/02/12 11:44:42;;;;;;;608.47;275.70;;;;;;;;;;5018809;28;20436;-83
2022/02/12 11:47:08;;;;;;;385.65;154.27;;;;;;;;;;5018233;28;20026;-82
2022/02/12 11:49:35;;;;;;;12.75;6.90;;;;;;;;;;5018423;28;20030;-81
2022/02/12 11:52:06;;;;;;;327.27;123.47;;;;;;;;;;5018003;28;20030;-82
2022/02/12 11:54:47;;;;;;;806.60;363.00;;;;;;;;;;5017829;28;20145;-82
2022/02/12 11:57:16;;;;;;;841.00;365.20;;;;;;;;;;5018143;28;20026;-82
2022/02/12 11:59:42;;;;;;;604.60;243.15;;;;;;;;;;4999916;28;20036;-82
2022/02/12 12:02:08;;;;;;;362.75;108.90;;;;;;;;;;5000628;28;20318;-81
2022/02/12 12:04:36;;;;;;;594.65;243.02;;;;;;;;;;5017955;28;20324;-81
2022/02/12 12:07:09;;;;;;;693.70;289.02;;;;;;;;;;5017860;28;20045;-82
2022/02/12 12:09:50;;;;;;;782.33;332.77;;;;;;;;;;5018175;28;20022;-82
2022/02/12 12:12:19;;;;;;;391.23;154.38;;;;;;;;;;5017534;28;20058;-82
2022/02/12 12:14:46;;;;;;;278.50;129.25;;;;;;;;;;5021532;28;20123;-81
2022/02/12 12:17:14;;;;;;;27.73;15.02;;;;;;;;;;5019533;28;20348;-82
2022/02/12 12:19:42;;;;;;;26.27;14.15;;;;;;;;;;5037441;28;20052;-82
2022/02/12 12:22:09;;;;;;;137.23;78.10;;;;;;;;;;5037490;28;20108;-81
2022/02/12 12:24:35;;;;;;;147.85;80.95;;;;;;;;;;5037272;28;20507;-82
2022/02/12 12:27:02;;;;;;;302.88;167.98;;;;;;;;;;5019949;28;20412;-82
2022/02/12 12:32:15;;;;;;;145.38;73.97;;;;;;;;;;5037295;28;20123;-82
2022/02/12 12:34:55;;;;;;;205.80;108.03;;;;;;;;;;5019259;28;20075;-81
2022/02/12 12:37:22;;;;;;;175.82;87.35;;;;;;;;;;5019835;28;20355;-82
2022/02/12 12:39:48;;;;;;;349.48;129.18;;;;;;;;;;5037313;28;20037;-81
2022/02/12 12:42:17;;;;;;;202.60;67.40;;;;;;;;;;5037051;28;20028;-81
2022/02/12 12:44:44;;;;;;;174.43;50.88;;;;;;;;;;5037334;28;20392;-81
2022/02/12 12:47:11;;;;;;;136.38;39.17;;;;;;;;;;5020065;28;20116;-81
2022/02/12 12:49:40;;;;;;;133.77;36.97;;;;;;;;;;5037184;28;20030;-81
2022/02/12 12:52:11;;;;;;;303.92;74.47;;;;;;;;;;5036843;28;20029;-81
2022/02/12 12:54:40;;;;;;;351.38;89.70;;;;;;;;;;5019644;28;20029;-81
2022/02/12 12:57:07;;;;;;;367.08;97.40;;;;;;;;;;5037112;28;20044;-81
2022/02/12 12:59:33;;;;;;;622.75;200.60;;;;;;;;;;5036912;28;20044;-81
2022/02/12 13:02:06;;;;;;;542.15;170.88;;;;;;;;;;5037099;28;20029;-82
2022/02/12 13:04:45;;;;;;;174.50;51.15;;;;;;;;;;5036955;28;20029;-81
2022/02/12 13:07:11;;;;;;;293.90;83.07;;;;;;;;;;5018981;28;20076;-81
2022/02/12 13:09:37;;;;;;;178.93;53.72;;;;;;;;;;5019477;28;20033;-81
2022/02/12 13:12:22;;;;;;;599.33;192.38;;;;;;;;;;5040735;28;20289;-81
2022/02/12 13:14:48;;;;;;;396.98;117.78;;;;;;;;;;5040761;28;20045;-81
2022/02/12 13:17:14;;;;;;;291.40;93.47;;;;;;;;;;5023426;28;20040;-81
2022/02/12 13:19:40;;;;;;;213.57;68.45;;;;;;;;;;5040819;28;20017;-82
2022/02/12 13:22:06;;;;;;;280.15;93.22;;;;;;;;;;5040797;28;20036;-81
2022/02/12 13:24:33;;;;;;;75.28;24.25;;;;;;;;;;5040584;28;20029;-81
2022/02/12 13:26:59;;;;;;;219.20;49.90;;;;;;;;;;5040730;28;20025;-81
2022/02/12 13:29:26;;;;;;;199.55;44.78;;;;;;;;;;5040687;28;20017;-81
2022/02/12 13:31:57;;;;;;;217.50;60.63;;;;;;;;;;5040627;28;20323;-81
2022/02/12 13:34:27;;;;;;;606.03;198.10;;;;;;;;;;5040843;28;20021;-81
2022/02/12 13:36:53;;;;;;;84.30;26.45;;;;;;;;;;5040522;28;20029;-81
2022/02/12 13:39:20;;;;;;;376.52;106.05;;;;;;;;;;5023052;28;20018;-81
2022/02/12 13:41:47;;;;;;;571.25;179.18;;;;;;;;;;5022986;28;20025;-81
2022/02/12 13:44:13;;;;;;;485.80;153.77;;;;;;;;;;5040543;28;20042;-81
2022/02/12 13:46:40;;;;;;;398.38;129.93;;;;;;;;;;5040364;28;20033;-81
2022/02/12 13:49:16;;;;;;;414.67;144.88;;;;;;;;;;5040034;28;20029;-81
2022/02/12 13:51:50;;;;;;;378.70;133.77;;;;;;;;;;5039982;28;20125;-81
2022/02/12 13:54:16;;;;;;;450.67;156.40;;;;;;;;;;5039986;28;20048;-81
2022/02/12 13:56:44;;;;;;;442.10;152.02;;;;;;;;;;5040318;28;20029;-81
2022/02/12 13:59:10;;;;;;;506.55;201.35;;;;;;;;;;5040426;28;20096;-81
2022/02/12 14:01:36;;;;;;;242.15;91.95;;;;;;;;;;5039905;28;20025;-81
2022/02/12 14:04:02;;;;;;;547.55;246.35;;;;;;;;;;5040214;28;20104;-82
2022/02/12 14:06:28;;;;;;;110.97;44.28;;;;;;;;;;5022128;28;20025;-81
2022/02/12 14:08:57;;;;;;;237.50;90.28;;;;;;;;;;5040205;28;20336;-82
2022/02/12 14:11:25;;;;;;;370.75;121.63;;;;;;;;;;5039946;28;20021;-81
2022/02/12 14:13:52;;;;;;;356.85;112.97;;;;;;;;;;5021603;28;20046;-81
2022/02/12 14:16:18;;;;;;;550.60;190.20;;;;;;;;;;5021915;28;20040;-81
2022/02/12 14:18:44;;;;;;;593.45;179.68;;;;;;;;;;5039756;28;20022;-81
2022/02/12 14:21:10;;;;;;;504.98;136.82;;;;;;;;;;5039388;28;20033;-80
2022/02/12 14:23:36;;;;;;;504.00;149.43;;;;;;;;;;5039025;28;20021;-81
2022/02/12 14:26:02;;;;;;;492.90;142.93;;;;;;;;;;5039872;28;20057;-81
2022/02/12 14:28:28;;;;;;;404.88;125.03;;;;;;;;;;5022028;28;20025;-81
2022/02/12 14:30:54;;;;;;;527.75;179.15;;;;;;;;;;5021671;28;20332;-81
2022/02/12 14:33:20;;;;;;;549.38;193.57;;;;;;;;;;5022136;28;20022;-81
2022/02/12 14:35:49;;;;;;;167.63;51.53;;;;;;;;;;5039352;28;20021;-81
2022/02/12 14:38:16;;;;;;;186.50;67.25;;;;;;;;;;5039327;28;20026;-81
2022/02/12 14:40:42;;;;;;;139.63;52.08;;;;;;;;;;5021513;28;20478;-83
2022/02/12 14:43:08;;;;;;;90.32;37.65;;;;;;;;;;5039450;28;20037;-81
2022/02/12 14:45:34;;;;;;;182.65;69.47;;;;;;;;;;5039372;28;20025;-81
2022/02/12 14:48:00;;;;;;;83.10;33.83;;;;;;;;;;5039246;28;20316;-81
2022/02/12 14:50:26;;;;;;;126.10;47.63;;;;;;;;;;5021672;28;20021;-81
2022/02/12 14:52:52;;;;;;;60.28;24.02;;;;;;;;;;5039069;28;20071;-80
2022/02/12 14:55:18;;;;;;;84.80;35.17;;;;;;;;;;5039244;28;20025;-81